Time;durP1;ratioP1;P1;durP2;ratioP2;P2;SDS_P1;SDS_P2;PMS_P1;PMS_P2;Temp;Humidity;BMP_temperature;BMP_pressure;BME280_temperature;BME280_humidity;BME280_pressure;Samples;Min_cycle;Max_cycle;Signal;HPM_P1;HPM_P2
2022/01/15 00:01:04;;;;;;;;;115.67;96.67;;;;;4.93;70.25;102726.47;5058652;28;45461;-46
2022/01/15 00:03:30;;;;;;;;;115.67;101.00;;;;;4.89;70.50;102719.63;5058892;28;45402;-46
2022/01/15 00:05:56;;;;;;;;;119.67;99.33;;;;;4.84;71.58;102720.69;5058802;28;45508;-45
2022/01/15 00:08:22;;;;;;;;;115.33;93.00;;;;;4.85;70.25;102712.75;5058354;28;47103;-45
2022/01/15 00:10:47;;;;;;;;;126.67;102.00;;;;;4.74;71.01;102696.47;5058494;28;45662;-48
2022/01/15 00:13:54;;;;;;;;;118.33;100.67;;;;;4.80;70.61;102708.56;5058266;28;45246;-44
2022/01/15 00:16:09;;;;;;;;;135.33;108.33;;;;;4.84;70.82;102713.63;5056416;28;45399;-45
2022/01/15 00:19:01;;;;;;;;;97.33;63.00;;;;;4.83;71.25;102711.06;5056965;28;45804;-48
2022/01/15 00:21:26;;;;;;;;;124.00;102.00;;;;;4.83;70.81;102711.06;5058294;28;45436;-44
2022/01/15 00:23:52;;;;;;;;;131.00;103.00;;;;;4.75;71.15;102701.69;5058415;28;45434;-48
2022/01/15 00:26:18;;;;;;;;;121.00;96.00;;;;;4.84;71.58;102713.63;5058181;28;45342;-46
2022/01/15 00:28:43;;;;;;;;;126.33;99.00;;;;;4.86;70.44;102706.53;5056716;28;46056;-47
2022/01/15 00:31:09;;;;;;;;;120.33;100.00;;;;;4.86;70.71;102708.31;5058044;28;45452;-45
2022/01/15 00:33:34;;;;;;;;;121.33;98.67;;;;;4.75;70.57;102691.13;5058359;28;45228;-49
2022/01/15 00:35:59;;;;;;;;;115.67;92.00;;;;;4.82;69.93;102707.59;5058322;28;45408;-48
2022/01/15 00:38:25;;;;;;;;;94.00;65.33;;;;;4.80;71.43;102703.28;5057667;28;45441;-44
2022/01/15 00:40:51;;;;;;;;;115.67;94.33;;;;;4.78;70.90;102694.59;5058093;28;45233;-47
2022/01/15 00:43:17;;;;;;;;;117.33;97.67;;;;;4.77;71.14;102687.59;5057885;28;45232;-46
2022/01/15 00:45:43;;;;;;;;;121.00;98.67;;;;;4.78;70.60;102695.44;5058102;28;45453;-45
2022/01/15 00:48:08;;;;;;;;;115.67;92.00;;;;;4.78;70.89;102690.16;5057708;28;46086;-45
2022/01/15 00:50:34;;;;;;;;;130.67;100.67;;;;;4.78;71.29;102682.25;5057713;28;45272;-46
2022/01/15 00:52:59;;;;;;;;;120.67;94.33;;;;;4.77;70.88;102684.97;5058054;28;45354;-47
2022/01/15 00:55:24;;;;;;;;;116.33;92.00;;;;;4.78;70.72;102690.16;5058144;28;45277;-47
2022/01/15 00:57:50;;;;;;;;;114.00;94.33;;;;;4.78;70.70;102689.31;5057615;28;46924;-48
2022/01/15 01:00:19;;;;;;;;;123.33;99.00;;;;;4.73;71.36;102681.59;5057646;28;45338;-47
2022/01/15 01:02:45;;;;;;;;;116.33;93.67;;;;;4.73;70.79;102689.50;5057714;28;45557;-46
2022/01/15 01:05:11;;;;;;;;;116.33;92.33;;;;;4.74;70.77;102678.03;5058025;28;45355;-46
2022/01/15 01:07:37;;;;;;;;;110.67;93.00;;;;;4.71;70.49;102667.59;5057509;28;46137;-46
2022/01/15 01:23:37;;;;;;;;;121.33;95.00;;;;;4.63;70.49;102657.34;5015244;28;45332;-47
2022/01/15 01:26:10;;;;;;;;;121.67;96.00;;;;;4.59;70.73;102658.41;5015342;28;45280;-46
2022/01/15 01:28:42;;;;;;;;;121.67;93.67;;;;;4.55;71.17;102650.66;5014754;28;45423;-44
2022/01/15 01:33:37;;;;;;;;;121.00;95.00;;;;;4.49;71.09;102657.06;5014781;28;45386;-46
2022/01/15 01:36:13;;;;;;;;;110.00;84.67;;;;;4.38;71.60;102632.88;5014726;28;45286;-44
2022/01/15 01:38:47;;;;;;;;;110.67;88.00;;;;;4.40;71.75;102634.56;5014540;28;47152;-46
2022/01/15 01:41:18;;;;;;;;;124.67;101.67;;;;;4.41;71.39;102640.69;5014972;28;45430;-45
2022/01/15 01:43:49;;;;;;;;;121.33;104.67;;;;;4.35;72.34;102649.69;5014747;28;45665;-46
2022/01/15 01:48:42;;;;;;;;;116.00;96.33;;;;;4.34;72.42;102647.09;5014623;28;45399;-45
2022/01/15 01:51:08;;;;;;;;;119.00;96.67;;;;;4.31;71.99;102639.34;5014765;28;45325;-45
2022/01/15 01:53:35;;;;;;;;;127.33;102.67;;;;;4.33;71.38;102645.41;5052268;28;45431;-45
2022/01/15 01:56:02;;;;;;;;;121.00;99.00;;;;;4.32;71.39;102638.41;5089723;27;45230;-46
2022/01/15 01:58:27;;;;;;;;;128.33;91.33;;;;;4.35;72.15;102643.56;5056756;28;46139;-45
2022/01/15 02:00:52;;;;;;;;;133.00;101.00;;;;;4.36;72.61;102640.88;5056857;28;45377;-46
2022/01/15 02:03:18;;;;;;;;;124.00;95.00;;;;;4.39;71.83;102634.63;5057006;28;45895;-46
2022/01/15 02:05:43;;;;;;;;;115.00;91.33;;;;;4.29;72.13;102612.19;5057462;28;45393;-44
2022/01/15 02:08:09;;;;;;;;;134.33;103.33;;;;;4.38;71.11;102617.09;5056563;28;46212;-44
2022/01/15 02:10:34;;;;;;;;;141.33;101.00;;;;;4.35;71.21;102625.13;5056657;28;45248;-48
2022/01/15 02:13:01;;;;;;;;;115.00;93.33;;;;;4.31;71.16;102618.25;5056496;28;45562;-45
2022/01/15 02:15:27;;;;;;;;;129.67;102.33;;;;;4.30;71.76;102614.78;5056927;28;45382;-48
2022/01/15 02:17:53;;;;;;;;;117.00;100.67;;;;;4.25;70.97;102617.56;5056549;28;46185;-46
2022/01/15 02:25:52;;;;;;;;;124.00;101.67;;;;;4.17;71.23;102617.03;5056914;28;45357;-45
2022/01/15 02:28:22;;;;;;;;;126.67;103.67;;;;;4.06;72.33;102606.03;5056333;28;46307;-48
2022/01/15 02:31:00;;;;;;;;;122.67;105.00;;;;;4.10;71.31;102612.06;5056528;28;45462;-46
2022/01/15 02:33:26;;;;;;;;;127.33;98.33;;;;;4.08;71.98;102614.72;5056557;28;45257;-47
2022/01/15 02:35:52;;;;;;;;;120.33;93.33;;;;;4.04;73.03;102607.00;5056800;28;45271;-48
2022/01/15 02:38:17;;;;;;;;;118.67;99.67;;;;;4.04;72.63;102614.91;5056255;28;46167;-45
2022/01/15 02:40:43;;;;;;;;;94.67;72.00;;;;;4.04;71.73;102617.53;5056291;28;45254;-45
2022/01/15 02:43:13;;;;;;;;;124.67;101.00;;;;;4.02;72.12;102609.72;5056392;28;45251;-45
2022/01/15 02:45:43;;;;;;;;;125.67;105.67;;;;;4.00;72.27;102612.41;5056720;28;45277;-44
2022/01/15 02:48:18;;;;;;;;;120.00;102.00;;;;;3.99;71.24;102596.66;5056188;28;46117;-45
2022/01/15 02:50:45;;;;;;;;;138.67;111.00;;;;;3.96;72.49;102602.91;5059845;28;45375;-45
2022/01/15 02:53:13;;;;;;;;;119.67;97.67;;;;;3.90;71.47;102589.09;5060123;28;45362;-45
2022/01/15 02:55:51;;;;;;;;;128.33;104.33;;;;;3.91;72.41;102596.94;5060061;28;45379;-45
2022/01/15 02:58:18;;;;;;;;;132.00;105.00;;;;;3.90;72.52;102591.75;5059667;28;46367;-44
2022/01/15 03:00:44;;;;;;;;;118.67;93.33;;;;;3.82;73.49;102581.50;5059637;28;45391;-44
2022/01/15 03:03:09;;;;;;;;;139.00;106.00;;;;;3.87;74.00;102589.22;5059642;28;45348;-45
2022/01/15 03:05:35;;;;;;;;;115.67;95.33;;;;;3.86;73.55;102577.84;5059772;28;45348;-45
2022/01/15 03:08:00;;;;;;;;;123.00;106.33;;;;;3.85;72.78;102572.63;5059299;28;46036;-47
2022/01/15 03:10:26;;;;;;;;;135.00;105.00;;;;;3.88;72.82;102580.44;5059397;28;45301;-46
2022/01/15 03:12:56;;;;;;;;;140.33;111.33;;;;;3.85;73.27;102572.63;5059692;28;45471;-45
2022/01/15 03:15:22;;;;;;;;;137.75;114.25;;;;;3.83;73.13;102572.69;5059458;28;45446;-44
2022/01/15 03:17:48;;;;;;;;;142.33;108.33;;;;;3.83;73.31;102569.19;5059313;28;45321;-44
2022/01/15 03:20:18;;;;;;;;;141.00;119.00;;;;;3.82;73.41;102570.97;5059350;28;45384;-44
2022/01/15 03:22:44;;;;;;;;;152.00;113.33;;;;;3.81;72.73;102571.03;5059519;28;45291;-46
2022/01/15 03:25:10;;;;;;;;;125.00;97.67;;;;;3.81;73.24;102566.63;5059656;28;45355;-45
2022/01/15 03:27:36;;;;;;;;;140.33;119.33;;;;;3.72;72.62;102559.94;5058964;28;46731;-45
2022/01/15 03:30:04;;;;;;;;;130.33;107.67;;;;;3.81;72.65;102573.66;5059016;28;45330;-44
2022/01/15 03:32:29;;;;;;;;;140.67;111.67;;;;;3.78;73.07;102568.50;5059215;28;45350;-48
2022/01/15 03:34:55;;;;;;;;;131.67;103.67;;;;;3.80;73.87;102561.44;5059335;28;45319;-46
2022/01/15 03:37:20;;;;;;;;;136.00;110.00;;;;;3.82;73.20;102560.44;5058834;28;46036;-45
2022/01/15 03:39:46;;;;;;;;;128.67;100.67;;;;;3.70;72.53;102540.69;5058794;28;45418;-47
2022/01/15 03:42:11;;;;;;;;;116.33;102.00;;;;;3.68;73.12;102534.66;5059116;28;45329;-44
2022/01/15 03:44:42;;;;;;;;;132.67;105.00;;;;;3.76;73.74;102547.53;5059160;28;45387;-45
2022/01/15 03:47:08;;;;;;;;;131.33;104.00;;;;;3.74;73.77;102549.34;5058745;28;46315;-45
2022/01/15 03:49:34;;;;;;;;;145.00;111.67;;;;;3.72;73.64;102548.56;5058692;28;45455;-45
2022/01/15 03:51:59;;;;;;;;;116.33;93.67;;;;;3.70;72.74;102545.97;5059481;27;45326;-47
2022/01/15 03:54:25;;;;;;;;;127.67;107.00;;;;;3.67;72.31;102543.47;5059000;28;45525;-46
2022/01/15 03:56:50;;;;;;;;;136.00;117.50;;;;;3.65;73.50;102540.03;5058852;28;45316;-48
2022/01/15 03:59:16;;;;;;;;;155.50;126.00;;;;;3.62;73.83;102540.13;5058071;28;45401;-44
2022/01/15 04:01:41;;;;;;;;;146.25;125.50;;;;;3.57;74.04;102536.81;5058777;28;45431;-46
2022/01/15 04:04:07;;;;;;;;;115.00;90.75;;;;;3.50;73.47;102517.78;5058780;28;45459;-46
2022/01/15 04:06:32;;;;;;;;;153.25;121.75;;;;;3.54;73.33;102526.44;5058550;28;45409;-46
2022/01/15 04:08:59;;;;;;;;;132.25;111.50;;;;;3.55;73.19;102520.25;5058684;28;45298;-47
2022/01/15 04:11:24;;;;;;;;;133.00;109.00;;;;;3.51;73.38;102513.38;5058402;28;45213;-48
2022/01/15 04:13:50;;;;;;;;;138.25;113.75;;;;;3.49;73.56;102521.31;5058770;28;45295;-47
2022/01/15 04:16:15;;;;;;;;;142.00;111.00;;;;;3.48;73.90;102522.22;5058179;28;46105;-46
2022/01/15 04:18:41;;;;;;;;;131.25;106.00;;;;;3.45;73.86;102516.22;5058328;28;45393;-44
2022/01/15 04:21:10;;;;;;;;;133.00;111.50;;;;;3.45;73.77;102517.06;5058646;28;45288;-46
2022/01/15 04:23:37;;;;;;;;;125.00;101.33;;;;;3.37;73.84;102500.75;5058515;28;45424;-45
2022/01/15 04:26:04;;;;;;;;;132.00;106.67;;;;;3.40;73.28;102505.03;5058166;28;46112;-42
2022/01/15 04:28:32;;;;;;;;;146.50;114.00;;;;;3.40;73.35;102510.28;5058430;28;45211;-45
2022/01/15 04:31:04;;;;;;;;;144.67;121.33;;;;;3.36;73.82;102511.31;5058348;28;45370;-45
2022/01/15 04:33:30;;;;;;;;;151.50;110.50;;;;;3.32;73.60;102505.31;5058627;28;45363;-46
2022/01/15 04:35:55;;;;;;;;;134.00;105.33;;;;;3.30;72.66;102506.28;5058315;28;46291;-45
2022/01/15 04:38:21;;;;;;;;;150.25;119.75;;;;;3.27;73.62;102507.25;5057848;28;45235;-44
2022/01/15 04:40:46;;;;;;;;;140.25;115.00;;;;;3.24;73.06;102508.25;5057297;28;45404;-44
2022/01/15 04:43:12;;;;;;;;;162.50;116.75;;;;;3.20;73.51;102497.84;5058262;28;45236;-45
2022/01/15 04:45:37;;;;;;;;;152.75;122.00;;;;;3.13;73.64;102497.25;5057583;28;47145;-44
2022/01/15 04:48:03;;;;;;;;;144.75;120.25;;;;;3.08;74.26;102491.31;5058138;28;45323;-46
2022/01/15 04:50:28;;;;;;;;;145.00;131.50;;;;;3.10;74.49;102497.34;5058027;28;45409;-45
2022/01/15 04:52:54;;;;;;;;;161.75;130.25;;;;;3.08;74.03;102491.31;5058416;28;45200;-45
2022/01/15 04:55:19;;;;;;;;;141.50;124.00;;;;;3.08;73.81;102493.94;5057718;28;46232;-47
2022/01/15 04:57:45;;;;;;;;;149.50;125.25;;;;;3.05;74.22;102488.78;5057624;28;45248;-48
2022/01/15 05:00:15;;;;;;;;;144.50;113.00;;;;;3.07;74.69;102489.56;5057878;28;45381;-44
2022/01/15 05:02:40;;;;;;;;;153.75;128.75;;;;;3.05;74.26;102480.88;5058039;28;45147;-43
2022/01/15 05:05:06;;;;;;;;;145.75;122.25;;;;;3.05;73.74;102477.41;5056395;28;46114;-45
2022/01/15 05:07:32;;;;;;;;;154.50;127.00;;;;;3.17;74.10;102484.84;5057605;28;45361;-42
2022/01/15 05:09:57;;;;;;;;;148.50;116.25;;;;;3.19;73.89;102491.75;5057591;28;45265;-42
2022/01/15 05:12:28;;;;;;;;;148.00;120.50;;;;;3.19;74.01;102486.50;5057054;28;45240;-42
2022/01/15 05:14:54;;;;;;;;;142.25;118.25;;;;;3.20;74.10;102484.72;5057150;28;46205;-42
2022/01/15 05:17:19;;;;;;;;;149.25;114.50;;;;;3.20;74.36;102482.97;5057480;28;45378;-43
2022/01/15 05:19:45;;;;;;;;;143.75;117.50;;;;;3.23;74.02;102481.97;5057478;28;45315;-43
2022/01/15 05:22:10;;;;;;;;;149.50;122.00;;;;;3.24;73.72;102474.06;5057561;28;45566;-43
2022/01/15 05:24:35;;;;;;;;;141.75;119.00;;;;;3.25;73.97;102478.38;5057527;28;45520;-44
2022/01/15 05:27:01;;;;;;;;;145.25;118.25;;;;;3.24;73.78;102466.16;5057217;28;45383;-44
2022/01/15 05:29:27;;;;;;;;;157.25;126.00;;;;;3.29;73.82;102475.63;5057678;28;45350;-45
2022/01/15 05:31:52;;;;;;;;;160.25;131.50;;;;;3.30;73.30;102482.63;5057265;28;45786;-47
2022/01/15 05:34:18;;;;;;;;;151.75;118.25;;;;;3.30;73.33;102480.00;5089786;27;47307;-44
2022/01/15 05:36:43;;;;;;;;;137.25;112.50;;;;;3.31;73.87;102479.91;5057453;28;45251;-44
2022/01/15 05:39:09;;;;;;;;;153.00;124.75;;;;;3.29;72.98;102473.00;5057165;28;45582;-45
2022/01/15 05:41:34;;;;;;;;;155.00;130.75;;;;;3.34;73.40;102478.97;5057209;28;45333;-46
2022/01/15 05:44:02;;;;;;;;;138.00;118.75;;;;;3.32;72.76;102476.38;5057092;28;45775;-44
2022/01/15 05:46:29;;;;;;;;;148.25;117.75;;;;;3.30;73.45;102482.63;5056825;28;45334;-46
2022/01/15 05:48:54;;;;;;;;;165.75;128.75;;;;;3.24;73.67;102484.56;5057298;28;45427;-42
2022/01/15 05:51:20;;;;;;;;;139.25;105.25;;;;;3.19;72.87;102483.84;5057247;28;45329;-44
2022/01/15 05:53:45;;;;;;;;;147.00;124.50;;;;;3.16;72.92;102484.00;5056773;28;46108;-44
2022/01/15 05:56:11;;;;;;;;;150.75;118.50;;;;;3.10;73.29;102481.56;5056935;28;45423;-45
2022/01/15 05:58:36;;;;;;;;;139.50;118.50;;;;;3.12;73.64;102495.53;5055596;28;45288;-45
2022/01/15 06:01:02;;;;;;;;;136.00;118.25;;;;;3.06;74.04;102492.25;5055980;28;45473;-46
2022/01/15 06:03:27;;;;;;;;;157.75;124.00;;;;;3.06;73.58;102489.63;5056749;28;46197;-44
2022/01/15 06:05:53;;;;;;;;;164.00;128.50;;;;;3.07;74.30;102494.81;5056738;28;45326;-45
2022/01/15 06:08:18;;;;;;;;;144.25;117.50;;;;;3.07;73.78;102486.94;5056961;28;45359;-46
2022/01/15 06:10:43;;;;;;;;;138.75;115.75;;;;;3.08;73.42;102491.31;5057127;28;45406;-46
2022/01/15 06:13:09;;;;;;;;;166.00;129.50;;;;;3.08;73.27;102493.06;5056782;28;45399;-45
2022/01/15 06:15:34;;;;;;;;;153.75;129.50;;;;;3.08;73.31;102500.97;5056428;28;45350;-44
2022/01/15 06:18:00;;;;;;;;;146.25;120.50;;;;;3.07;72.88;102497.44;5056925;28;45490;-45
2022/01/15 06:20:25;;;;;;;;;142.25;117.75;;;;;3.05;73.83;102491.41;5056981;28;45268;-42
2022/01/15 06:22:50;;;;;;;;;150.00;120.00;;;;;3.03;73.91;102489.72;5057757;28;46318;-46
2022/01/15 06:25:16;;;;;;;;;147.00;120.25;;;;;3.01;73.94;102492.44;5060674;28;45398;-44
2022/01/15 06:27:41;;;;;;;;;128.75;110.00;;;;;3.02;73.50;102490.66;5060583;28;45297;-43
2022/01/15 06:30:07;;;;;;;;;155.75;122.75;;;;;2.98;73.37;102482.00;5061117;28;45470;-44
2022/01/15 06:32:36;;;;;;;;;132.50;106.75;;;;;3.03;73.50;102492.34;5060504;28;46989;-43
2022/01/15 06:35:03;;;;;;;;;135.50;113.50;;;;;2.96;73.52;102484.72;5060312;28;45312;-45
2022/01/15 06:37:29;;;;;;;;;149.00;120.50;;;;;2.92;74.19;102483.09;5060344;28;45245;-47
2022/01/15 06:39:54;;;;;;;;;146.50;115.75;;;;;2.86;73.51;102467.53;5060618;28;45440;-44
2022/01/15 06:42:19;;;;;;;;;138.50;112.75;;;;;2.87;73.63;102474.53;5060195;28;45473;-46
2022/01/15 06:44:45;;;;;;;;;141.00;108.25;;;;;2.84;73.55;102477.25;5060551;28;45370;-45
2022/01/15 06:47:10;;;;;;;;;131.25;110.00;;;;;2.83;73.90;102479.94;5060307;28;45388;-46
2022/01/15 06:49:35;;;;;;;;;150.00;124.00;;;;;2.74;74.35;102466.22;5058895;28;45593;-45
2022/01/15 06:52:01;;;;;;;;;148.75;114.75;;;;;2.69;74.80;102464.66;5059974;28;45974;-46
2022/01/15 06:54:26;;;;;;;;;138.25;114.00;;;;;2.74;74.54;102481.13;5058680;28;45374;-44
2022/01/15 06:56:52;;;;;;;;;118.67;94.67;;;;;2.68;74.05;102466.41;5058938;28;45414;-45
2022/01/15 06:59:17;;;;;;;;;145.50;111.75;;;;;2.71;74.10;102465.47;5062399;28;45347;-47
2022/01/15 07:01:42;;;;;;;;;116.33;97.00;;;;;2.67;73.91;102456.81;5066626;28;47341;-45
2022/01/15 07:04:08;;;;;;;;;114.75;94.50;;;;;2.68;73.97;102469.03;5065399;28;45375;-45
2022/01/15 07:06:33;;;;;;;;;139.00;114.00;;;;;2.62;74.56;102448.25;5066539;28;45382;-45
2022/01/15 07:08:58;;;;;;;;;150.00;120.50;;;;;2.64;74.34;102454.28;5066952;28;45329;-44
2022/01/15 07:11:24;;;;;;;;;135.50;112.25;;;;;2.61;74.87;102446.53;5065333;28;47037;-45
2022/01/15 07:13:49;;;;;;;;;139.75;112.25;;;;;2.62;74.87;102450.88;5063419;28;45307;-46
2022/01/15 07:16:15;;;;;;;;;120.00;92.75;;;;;2.63;74.48;102447.34;5064011;28;45577;-45
2022/01/15 07:18:40;;;;;;;;;139.00;116.75;;;;;2.60;74.94;102443.94;5065515;28;45146;-46
2022/01/15 07:21:05;;;;;;;;;151.00;121.50;;;;;2.60;74.88;102441.31;5062633;28;45280;-45
2022/01/15 07:23:31;;;;;;;;;152.50;118.50;;;;;2.58;75.26;102445.78;5061744;28;45458;-48
2022/01/15 07:25:56;;;;;;;;;144.00;114.50;;;;;2.61;75.13;102451.81;5059868;28;45420;-43
2022/01/15 07:28:24;;;;;;;;;137.50;113.00;;;;;2.49;74.55;102425.97;5059555;28;45224;-43
2022/01/15 07:30:49;;;;;;;;;147.50;115.50;;;;;2.62;74.53;102453.50;5059124;28;46391;-45
2022/01/15 07:33:15;;;;;;;;;115.67;92.67;;;;;2.62;74.25;102448.25;5059058;28;45390;-43
2022/01/15 07:35:43;;;;;;;;;123.50;104.00;;;;;2.64;74.75;102450.81;5058407;28;45334;-45
2022/01/15 07:38:11;;;;;;;;;133.00;110.33;;;;;2.68;74.35;102452.44;5059193;28;45431;-45
2022/01/15 07:40:36;;;;;;;;;143.50;124.50;;;;;2.69;74.72;102447.09;5091665;27;47574;-45
2022/01/15 07:43:03;;;;;;;;;147.25;116.50;;;;;2.62;74.75;102426.38;5057603;28;45303;-43
2022/01/15 07:45:29;;;;;;;;;123.00;96.33;;;;;2.71;73.86;102442.66;5059201;28;45350;-44
2022/01/15 07:47:54;;;;;;;;;152.75;123.00;;;;;2.72;74.85;102447.00;5059068;28;45245;-45
2022/01/15 07:50:24;;;;;;;;;123.67;103.33;;;;;2.72;74.22;102443.53;5058651;28;47326;-48
2022/01/15 07:52:57;;;;;;;;;141.67;108.00;;;;;2.71;74.28;102447.94;5057764;28;45383;-45
2022/01/15 07:55:24;;;;;;;;;153.25;121.75;;;;;2.72;74.68;102449.63;5058773;28;45275;-44
2022/01/15 07:57:50;;;;;;;;;134.00;109.75;;;;;2.68;75.06;102444.53;5059106;28;45294;-43
2022/01/15 08:00:16;;;;;;;;;135.75;117.50;;;;;2.70;75.27;102443.59;5058691;28;46012;-45
2022/01/15 08:02:42;;;;;;;;;136.75;108.50;;;;;2.69;74.62;102439.22;5058438;28;45181;-45
2022/01/15 08:05:09;;;;;;;;;143.00;109.00;;;;;2.81;74.72;102444.97;5058996;28;45223;-47
2022/01/15 08:07:35;;;;;;;;;140.50;109.75;;;;;2.86;74.56;102441.25;5058584;28;45474;-46
2022/01/15 08:10:01;;;;;;;;;130.00;109.67;;;;;2.83;74.50;102420.34;5058397;28;47129;-47
2022/01/15 08:12:26;;;;;;;;;127.00;102.33;;;;;2.97;74.08;102431.22;5058625;28;45472;-44
2022/01/15 08:14:55;;;;;;;;;133.75;112.25;;;;;3.01;73.86;102431.97;5058621;28;45406;-44
2022/01/15 08:17:20;;;;;;;;;140.67;110.00;;;;;2.99;74.46;102432.03;5058728;28;45569;-46
2022/01/15 08:19:45;;;;;;;;;140.00;115.25;;;;;3.11;74.13;102432.47;5058271;28;46375;-44
2022/01/15 08:22:11;;;;;;;;;127.33;105.00;;;;;3.15;73.78;102432.28;5058366;28;45244;-43
2022/01/15 08:24:36;;;;;;;;;123.00;104.33;;;;;3.21;74.19;102426.81;5058687;28;45435;-45
2022/01/15 08:27:02;;;;;;;;;129.67;106.67;;;;;3.18;74.45;102418.19;5058510;28;45343;-47
2022/01/15 08:29:27;;;;;;;;;125.67;102.67;;;;;3.30;73.13;102433.50;5058202;28;46285;-45
2022/01/15 08:31:53;;;;;;;;;153.50;111.25;;;;;3.34;73.18;102431.63;5058076;28;45608;-44
2022/01/15 08:34:18;;;;;;;;;127.00;103.00;;;;;3.41;73.02;102423.44;5058324;28;45513;-45
2022/01/15 08:36:44;;;;;;;;;128.67;102.33;;;;;3.47;73.07;102424.97;5058319;28;45494;-48
2022/01/15 08:39:09;;;;;;;;;136.00;111.33;;;;;3.57;72.54;102428.06;5057583;28;45503;-47
2022/01/15 08:41:35;;;;;;;;;138.67;117.00;;;;;3.61;71.75;102430.53;5058168;28;45419;-45
2022/01/15 08:44:01;;;;;;;;;128.00;102.00;;;;;3.65;72.13;102428.63;5057887;28;45511;-46
2022/01/15 08:46:27;;;;;;;;;143.75;112.25;;;;;3.65;71.87;102421.59;5056842;28;45371;-46
2022/01/15 08:48:52;;;;;;;;;122.67;104.00;;;;;3.71;72.39;102431.03;5057696;28;46320;-46
2022/01/15 08:51:17;;;;;;;;;142.33;107.00;;;;;3.78;71.72;102429.84;5056455;28;45322;-45
2022/01/15 08:53:43;;;;;;;;;121.33;97.67;;;;;3.83;71.72;102432.28;5058067;28;45365;-46
2022/01/15 08:56:08;;;;;;;;;127.00;109.33;;;;;3.86;72.12;102424.28;5058129;28;45395;-46
2022/01/15 08:58:34;;;;;;;;;132.33;99.00;;;;;3.94;71.25;102438.84;5057602;28;46087;-46
2022/01/15 09:01:00;;;;;;;;;125.33;102.67;;;;;3.95;70.96;102437.06;5057872;28;45418;-46
2022/01/15 09:03:25;;;;;;;;;125.33;99.00;;;;;4.06;71.40;102445.41;5057752;28;45252;-46
2022/01/15 09:05:51;;;;;;;;;121.00;100.33;;;;;4.12;71.94;102445.13;5059422;28;45384;-46
2022/01/15 09:08:24;;;;;;;;;128.67;104.67;;;;;4.18;71.45;102444.03;5077715;27;47120;-46
2022/01/15 09:10:51;;;;;;;;;130.33;102.33;;;;;4.25;71.18;102446.34;5077614;27;45493;-45
2022/01/15 09:13:16;;;;;;;;;128.67;103.00;;;;;4.35;70.68;102448.59;5078056;27;45332;-44
2022/01/15 09:15:41;;;;;;;;;122.67;98.33;;;;;4.44;71.24;102443.78;5078099;27;45415;-44
2022/01/15 09:18:07;;;;;;;;;129.67;99.67;;;;;4.52;69.99;102446.09;5077679;27;45834;-46
2022/01/15 09:20:33;;;;;;;;;132.33;109.33;;;;;4.60;69.81;102454.53;5077993;27;45336;-46
2022/01/15 09:22:59;;;;;;;;;132.33;103.00;;;;;4.70;70.27;102442.66;5077951;27;45443;-49
2022/01/15 09:25:27;;;;;;;;;117.67;92.00;;;;;4.82;69.21;102445.69;5078456;28;45366;-48
2022/01/15 09:30:37;;;;;;;;;130.67;104.67;;;;;5.81;68.15;102435.78;5077738;28;45449;-48
2022/01/15 09:33:03;;;;;;;;;115.33;88.67;;;;;7.38;65.01;102432.06;5077705;27;45637;-47
2022/01/15 09:35:30;;;;;;;;;124.00;104.00;;;;;8.67;61.52;102420.16;5077957;27;45311;-45
2022/01/15 09:37:56;;;;;;;;;118.00;98.33;;;;;9.91;57.48;102425.59;5077349;27;45489;-45
2022/01/15 09:40:25;;;;;;;;;117.67;96.33;;;;;10.95;56.66;102423.81;5077466;27;45918;-46
2022/01/15 09:42:50;;;;;;;;;110.67;94.00;;;;;11.81;52.97;102430.97;5077601;28;45356;-48
2022/01/15 09:45:18;;;;;;;;;100.00;88.67;;;;;12.48;50.71;102419.72;5077657;28;45424;-46
2022/01/15 09:47:43;;;;;;;;;111.00;87.00;;;;;13.20;49.43;102432.75;5075858;28;46151;-46
2022/01/15 09:50:12;;;;;;;;;102.75;82.00;;;;;13.77;47.72;102421.00;5076470;27;45358;-46
2022/01/15 09:52:38;;;;;;;;;112.25;87.25;;;;;14.33;45.84;102418.09;5076419;27;45706;-45
2022/01/15 09:55:07;;;;;;;;;104.25;88.00;;;;;14.92;43.84;102420.16;5077149;27;45517;-46
2022/01/15 09:57:34;;;;;;;;;107.25;89.00;;;;;15.33;44.39;102412.94;5076352;27;46917;-48
2022/01/15 10:00:02;;;;;;;;;103.50;87.00;;;;;15.76;42.87;102409.13;5077234;28;45294;-47
2022/01/15 10:02:27;;;;;;;;;101.25;82.00;;;;;16.22;43.11;102410.22;5077237;27;45266;-46
2022/01/15 10:04:53;;;;;;;;;93.25;77.00;;;;;16.58;42.78;102411.28;5077158;28;45381;-46
2022/01/15 10:07:22;;;;;;;;;99.00;82.25;;;;;16.55;42.50;102390.09;5076865;28;46113;-47
2022/01/15 10:09:49;;;;;;;;;87.75;65.00;;;;;16.80;40.55;102406.59;5076870;28;45240;-45
2022/01/15 10:12:28;;;;;;;;;105.25;90.50;;;;;17.15;40.45;102403.16;5077106;28;45320;-46
2022/01/15 10:14:58;;;;;;;;;116.00;85.25;;;;;17.36;38.45;102397.53;5077234;28;45494;-46
2022/01/15 10:17:28;;;;;;;;;99.75;83.75;;;;;17.65;41.74;102398.19;5076880;28;46113;-46
2022/01/15 10:19:57;;;;;;;;;97.50;77.00;;;;;17.84;40.31;102399.09;5076704;28;45486;-44
2022/01/15 10:22:24;;;;;;;;;95.75;81.00;;;;;17.85;38.50;102400.78;5077111;27;45523;-45
2022/01/15 10:24:59;;;;;;;;;101.00;85.50;;;;;17.83;38.66;102409.00;5077039;27;45501;-47
2022/01/15 10:27:31;;;;;;;;;102.25;87.25;;;;;17.99;37.96;102402.91;5076479;28;45509;-48
2022/01/15 10:30:16;;;;;;;;;107.75;89.00;;;;;18.04;36.17;102397.09;5076710;28;45279;-45
2022/01/15 10:32:58;;;;;;;;;87.75;70.00;;;;;18.23;37.85;102393.34;5076992;28;45430;-46
2022/01/15 10:35:27;;;;;;;;;99.75;90.25;;;;;18.43;35.42;102381.38;5076906;28;45405;-46
2022/01/15 10:37:58;;;;;;;;;119.50;100.00;;;;;18.28;38.49;102369.47;5076303;27;45414;-48
2022/01/15 10:40:37;;;;;;;;;97.75;81.75;;;;;18.06;38.96;102370.84;5076446;28;45294;-48
2022/01/15 10:43:02;;;;;;;;;99.50;88.25;;;;;17.01;37.47;102361.50;5076754;28;45464;-48
2022/01/15 10:45:31;;;;;;;;;104.25;89.50;;;;;16.92;38.32;102375.84;5076833;27;45297;-46
2022/01/15 10:48:00;;;;;;;;;107.50;95.00;;;;;16.77;38.37;102374.63;5076228;27;46071;-47
2022/01/15 10:50:36;;;;;;;;;105.25;92.75;;;;;16.28;39.38;102371.22;5076146;27;45402;-46
2022/01/15 10:53:10;;;;;;;;;104.25;90.50;;;;;15.46;41.16;102364.41;5076614;28;45374;-49
2022/01/15 10:55:37;;;;;;;;;103.00;83.00;;;;;14.80;42.88;102374.81;5076729;27;45531;-46
2022/01/15 10:58:11;;;;;;;;;96.50;87.00;;;;;14.57;43.01;102364.28;5076213;28;46675;-46
2022/01/15 11:00:36;;;;;;;;;99.00;86.75;;;;;15.30;40.79;102364.13;5076364;28;45532;-49
2022/01/15 11:03:05;;;;;;;;;95.25;84.25;;;;;16.14;40.72;102364.47;5076496;28;45413;-46
2022/01/15 11:05:47;;;;;;;;;105.75;82.50;;;;;16.27;40.81;102358.78;5076390;28;45819;-46
2022/01/15 11:08:20;;;;;;;;;101.50;89.50;;;;;15.53;40.86;102365.56;5076569;27;46620;-44
2022/01/15 11:10:56;;;;;;;;;94.50;80.25;;;;;15.81;40.86;102361.25;5077153;27;45426;-46
2022/01/15 11:13:25;;;;;;;;;92.50;80.25;;;;;16.39;40.03;102355.78;5079912;28;45318;-47
2022/01/15 11:15:57;;;;;;;;;96.50;81.25;;;;;17.01;38.52;102349.91;5079819;28;45287;-48
2022/01/15 11:18:30;;;;;;;;;84.25;65.50;;;;;17.06;38.26;102348.44;5078874;27;47032;-47
2022/01/15 11:20:58;;;;;;;;;90.00;75.50;;;;;17.04;39.40;102347.78;5079300;27;45433;-46
2022/01/15 11:23:27;;;;;;;;;86.50;74.25;;;;;17.37;38.53;102350.84;5079613;27;45353;-44
2022/01/15 11:25:56;;;;;;;;;91.50;78.50;;;;;17.54;38.26;102333.00;5079969;28;45454;-46
2022/01/15 11:28:24;;;;;;;;;89.75;78.25;;;;;17.73;36.98;102338.22;5079216;28;46154;-49
2022/01/15 11:31:15;;;;;;;;;89.75;72.50;;;;;17.01;37.75;102334.63;5079330;28;45467;-46